Time;durP1;ratioP1;P1;durP2;ratioP2;P2;SDS_P1;SDS_P2;PMS_P1;PMS_P2;Temp;Humidity;BMP_temperature;BMP_pressure;BME280_temperature;BME280_humidity;BME280_pressure;Samples;Min_cycle;Max_cycle;Signal;HPM_P1;HPM_P2
2023/09/20 00:02:16;;;;;;;6.78;3.38;;;;;;;16.02;100.00;100549.81;4904538;28;20536;-77
2023/09/20 00:04:47;;;;;;;7.75;3.08;;;;;;;16.01;100.00;100558.69;4961822;28;20047;-76
2023/09/20 00:07:16;;;;;;;7.00;3.42;;;;;;;16.01;100.00;100548.06;4909489;29;20395;-76
2023/09/20 00:09:43;;;;;;;6.85;2.80;;;;;;;16.00;100.00;100547.19;4947653;29;20057;-76
2023/09/20 00:12:10;;;;;;;5.85;3.00;;;;;;;15.99;100.00;100550.75;4927758;28;20058;-76
2023/09/20 00:14:38;;;;;;;11.20;3.42;;;;;;;16.00;100.00;100556.94;4918429;29;20085;-76
2023/09/20 00:17:06;;;;;;;6.43;3.42;;;;;;;15.97;100.00;100556.13;4939938;29;20062;-76
2023/09/20 00:19:34;;;;;;;10.23;3.08;;;;;;;15.97;100.00;100553.47;4879482;29;20804;-76
2023/09/20 00:22:02;;;;;;;10.27;3.47;;;;;;;15.96;100.00;100551.69;4946844;29;20047;-76
2023/09/20 00:24:29;;;;;;;8.75;3.08;;;;;;;15.95;100.00;100544.66;4945802;29;20054;-76
2023/09/20 00:26:57;;;;;;;4.63;2.38;;;;;;;15.95;100.00;100538.44;4920195;28;20055;-76
2023/09/20 00:29:26;;;;;;;9.15;3.60;;;;;;;15.96;100.00;100556.16;4936403;28;20287;-76
2023/09/20 00:31:55;;;;;;;6.97;2.83;;;;;;;15.97;100.00;100552.56;4945306;29;20051;-76
2023/09/20 00:34:23;;;;;;;7.20;2.83;;;;;;;15.97;100.00;100549.91;4898302;28;20047;-76
2023/09/20 00:36:50;;;;;;;6.13;3.00;;;;;;;15.99;100.00;100556.06;4947236;28;20065;-76
2023/09/20 00:39:17;;;;;;;6.30;2.78;;;;;;;16.00;100.00;100556.94;4944890;29;20706;-76
2023/09/20 00:41:48;;;;;;;4.22;2.83;;;;;;;15.99;100.00;100558.72;4936750;29;20043;-76
2023/09/20 00:44:15;;;;;;;8.37;3.63;;;;;;;15.98;100.00;100555.19;4936513;28;20046;-76
2023/09/20 00:46:44;;;;;;;10.80;3.63;;;;;;;15.98;100.00;100559.63;4946627;29;20529;-76
2023/09/20 00:49:12;;;;;;;9.35;3.33;;;;;;;15.99;100.00;100561.38;4896215;28;20055;-76
2023/09/20 00:51:39;;;;;;;9.30;3.20;;;;;;;15.96;100.00;100570.31;4937836;29;20059;-76
2023/09/20 00:54:07;;;;;;;9.52;3.50;;;;;;;15.95;100.00;100560.59;4926866;29;20043;-76
2023/09/20 00:56:35;;;;;;;7.75;3.95;;;;;;;15.93;100.00;100559.72;4920488;29;20058;-76
2023/09/20 00:59:06;;;;;;;7.75;4.10;;;;;;;15.94;100.00;100560.63;4935933;28;20047;-76
2023/09/20 01:01:34;;;;;;;10.30;3.75;;;;;;;15.94;100.00;100557.97;4928362;29;20509;-76
2023/09/20 01:04:05;;;;;;;4.82;3.22;;;;;;;15.96;100.00;100558.81;4914478;29;20054;-76
2023/09/20 01:06:33;;;;;;;9.90;3.85;;;;;;;15.96;100.00;100557.00;4900017;28;20058;-76
2023/09/20 01:09:01;;;;;;;6.72;3.30;;;;;;;16.00;100.00;100562.28;4929904;29;20051;-76
2023/09/20 01:11:29;;;;;;;11.82;3.72;;;;;;;16.01;100.00;100564.91;4957486;28;20421;-76
2023/09/20 01:13:59;;;;;;;9.93;3.20;;;;;;;16.02;100.00;100555.13;4921418;29;20056;-76
2023/09/20 01:16:27;;;;;;;10.13;4.38;;;;;;;16.02;100.00;100553.34;4919149;29;20047;-76
2023/09/20 01:18:54;;;;;;;6.53;3.17;;;;;;;16.04;100.00;100558.63;4928678;29;20055;-76
2023/09/20 01:21:21;;;;;;;6.75;3.53;;;;;;;16.06;100.00;100562.13;4870038;29;20124;-76
2023/09/20 01:23:49;;;;;;;8.63;3.20;;;;;;;16.08;100.00;100562.94;4938796;29;20058;-76
2023/09/20 01:26:17;;;;;;;6.38;3.03;;;;;;;16.08;100.00;100566.47;4928695;29;20058;-76
2023/09/20 01:28:44;;;;;;;13.38;3.97;;;;;;;16.09;100.00;100559.41;4916905;29;20062;-76
2023/09/20 01:31:12;;;;;;;9.90;3.70;;;;;;;16.10;100.00;100561.13;4906861;29;20058;-76
2023/09/20 01:33:39;;;;;;;10.65;3.78;;;;;;;16.11;100.00;100555.78;4916951;29;20082;-76
2023/09/20 01:36:06;;;;;;;11.10;3.65;;;;;;;16.12;100.00;100551.31;4926578;29;20491;-77
2023/09/20 01:38:34;;;;;;;11.35;4.22;;;;;;;16.13;100.00;100558.41;4898998;28;20047;-77
2023/09/20 01:41:03;;;;;;;12.57;3.95;;;;;;;16.13;100.00;100555.75;4928878;29;20055;-77
2023/09/20 01:43:31;;;;;;;7.88;3.03;;;;;;;16.15;100.00;100564.56;4943413;29;20054;-77
2023/09/20 01:45:58;;;;;;;11.88;3.55;;;;;;;16.15;100.00;100561.91;4911292;28;20387;-76
2023/09/20 01:48:27;;;;;;;6.00;3.47;;;;;;;16.17;100.00;100565.38;4946733;29;20063;-77
2023/09/20 01:50:55;;;;;;;12.10;3.58;;;;;;;16.17;100.00;100558.28;4930748;29;20675;-77
2023/09/20 01:53:25;;;;;;;14.82;3.88;;;;;;;16.17;100.00;100550.31;4891527;29;20051;-76
2023/09/20 01:55:52;;;;;;;12.18;4.07;;;;;;;16.17;100.00;100549.44;4928125;29;20059;-76
2023/09/20 01:58:20;;;;;;;12.30;4.10;;;;;;;16.16;100.00;100545.91;4949297;29;20047;-76
2023/09/20 02:00:50;;;;;;;12.88;4.10;;;;;;;16.17;100.00;100544.97;4912874;29;20043;-76
2023/09/20 02:03:18;;;;;;;7.60;3.78;;;;;;;16.16;100.00;100542.34;4950193;29;20047;-76
2023/09/20 02:05:48;;;;;;;9.30;3.60;;;;;;;16.15;100.00;100541.50;4948622;28;20062;-77
2023/09/20 02:08:17;;;;;;;12.95;3.70;;;;;;;16.17;100.00;100541.47;4890149;29;20058;-76
2023/09/20 02:10:46;;;;;;;12.43;3.50;;;;;;;16.16;100.00;100531.72;4928951;29;20058;-75
2023/09/20 02:13:17;;;;;;;15.60;3.42;;;;;;;16.17;100.00;100542.31;4949637;29;20043;-76
2023/09/20 02:15:46;;;;;;;9.55;3.10;;;;;;;16.17;100.00;100536.16;4911506;29;20440;-76
2023/09/20 02:18:14;;;;;;;13.40;3.05;;;;;;;16.18;100.00;100537.88;4930536;29;20402;-76
2023/09/20 02:20:42;;;;;;;7.32;3.53;;;;;;;16.18;100.00;100530.78;4942893;29;20530;-76
2023/09/20 02:23:13;;;;;;;9.25;3.40;;;;;;;16.20;100.00;100536.09;4888422;29;20051;-77
2023/09/20 02:25:43;;;;;;;12.07;3.47;;;;;;;16.21;100.00;100540.47;4924845;29;20568;-76
2023/09/20 02:28:11;;;;;;;10.80;3.25;;;;;;;16.23;100.00;100535.13;4932467;29;20054;-77
2023/09/20 02:30:39;;;;;;;8.75;3.10;;;;;;;16.23;100.00;100535.97;4951003;28;20055;-76
2023/09/20 02:33:08;;;;;;;10.30;3.30;;;;;;;16.24;100.00;100534.19;4923755;29;20058;-77
2023/09/20 02:35:38;;;;;;;7.95;3.08;;;;;;;16.24;100.00;100536.84;4946279;29;20054;-76
2023/09/20 02:38:05;;;;;;;9.18;3.10;;;;;;;16.25;100.00;100536.81;4948977;28;20039;-77
2023/09/20 02:40:35;;;;;;;7.10;2.65;;;;;;;16.25;100.00;100534.16;4901377;28;20055;-76
2023/09/20 02:43:08;;;;;;;;;;;;;;;16.25;100.00;100533.28;4924522;29;20044;-76
2023/09/20 02:45:39;;;;;;;10.35;3.45;;;;;;;16.25;100.00;100535.94;4922947;29;19933;-76
2023/09/20 02:48:07;;;;;;;6.67;2.97;;;;;;;16.25;100.00;100536.81;4911187;29;20035;-76
2023/09/20 02:50:35;;;;;;;8.07;3.30;;;;;;;16.27;100.00;100534.13;4944676;29;20051;-76
2023/09/20 02:53:04;;;;;;;7.43;2.92;;;;;;;16.27;100.00;100534.13;4943698;28;20059;-76
2023/09/20 02:55:32;;;;;;;7.68;3.15;;;;;;;16.28;100.00;100533.22;4884867;29;20055;-76
2023/09/20 02:57:59;;;;;;;8.05;4.13;;;;;;;16.28;100.00;100526.13;4929506;28;20743;-76
2023/09/20 03:00:31;;;;;;;6.93;3.00;;;;;;;16.29;100.00;100525.19;4936146;29;20528;-76
2023/09/20 03:03:01;;;;;;;10.82;3.60;;;;;;;16.29;100.00;100530.50;4916138;28;20441;-76
2023/09/20 03:05:32;;;;;;;10.30;3.30;;;;;;;16.32;100.00;100530.44;4924345;29;20059;-76
2023/09/20 03:08:11;;;;;;;10.20;3.55;;;;;;;16.33;100.00;100520.66;4946229;29;20047;-76
2023/09/20 03:10:43;;;;;;;12.45;3.10;;;;;;;16.35;100.00;100513.53;4902182;28;20043;-76
2023/09/20 03:13:16;;;;;;;8.95;4.57;;;;;;;16.35;100.00;100518.84;4928754;29;20044;-76
2023/09/20 03:15:48;;;;;;;11.20;3.92;;;;;;;16.36;100.00;100515.28;4929000;29;20055;-76
2023/09/20 03:18:22;;;;;;;10.13;3.92;;;;;;;16.38;100.00;100518.78;4931523;29;20058;-76
2023/09/20 03:21:10;;;;;;;8.98;3.50;;;;;;;16.40;100.00;100505.44;4930998;29;20055;-76
2023/09/20 03:23:39;;;;;;;5.53;3.30;;;;;;;16.38;100.00;100510.78;4940808;29;20051;-76
2023/09/20 03:26:09;;;;;;;8.23;2.90;;;;;;;16.37;100.00;100509.06;4889613;29;20055;-76
2023/09/20 03:28:36;;;;;;;8.02;3.35;;;;;;;16.35;100.00;100493.16;4935167;29;20074;-75
2023/09/20 03:31:10;;;;;;;11.90;3.20;;;;;;;16.32;100.00;100474.59;4947019;29;20549;-75
2023/09/20 03:33:38;;;;;;;7.13;3.17;;;;;;;16.30;100.00;100481.75;4919364;29;20051;-75
2023/09/20 03:36:15;;;;;;;12.70;3.22;;;;;;;16.28;100.00;100480.91;4943261;28;20422;-75
2023/09/20 03:38:45;;;;;;;5.45;3.00;;;;;;;16.30;100.00;100481.75;4958565;28;20047;-75
2023/09/20 03:41:13;;;;;;;5.97;2.83;;;;;;;16.30;100.00;100491.50;4946232;29;20055;-75
2023/09/20 03:43:41;;;;;;;9.05;3.10;;;;;;;16.31;100.00;100501.22;4895792;28;20068;-75
2023/09/20 03:46:09;;;;;;;7.05;3.10;;;;;;;16.32;100.00;100501.19;4935213;29;20055;-75
2023/09/20 03:48:37;;;;;;;7.72;2.70;;;;;;;16.33;100.00;100502.94;4897120;29;20084;-75
2023/09/20 03:51:13;;;;;;;6.93;3.20;;;;;;;16.34;100.00;100503.81;4907659;29;20071;-75
2023/09/20 03:53:42;;;;;;;11.18;3.33;;;;;;;16.35;100.00;100509.09;4906150;29;20075;-75
2023/09/20 03:56:11;;;;;;;6.70;2.75;;;;;;;16.37;100.00;100493.97;4911287;29;20062;-76
2023/09/20 03:58:39;;;;;;;8.75;3.50;;;;;;;16.38;100.00;100509.00;4864997;29;20040;-77
2023/09/20 04:01:08;;;;;;;5.45;2.60;;;;;;;16.40;100.00;100505.44;4920659;29;20518;-75
2023/09/20 04:03:36;;;;;;;7.72;2.75;;;;;;;16.41;100.00;100504.50;4900921;29;20055;-76
2023/09/20 04:06:03;;;;;;;11.43;3.15;;;;;;;16.41;100.00;100504.50;4924673;28;20048;-75
2023/09/20 04:08:31;;;;;;;14.82;3.97;;;;;;;16.43;100.00;100508.03;4914913;29;20538;-76
2023/09/20 04:10:58;;;;;;;8.40;3.83;;;;;;;16.42;100.00;100490.31;4907150;29;20514;-76
2023/09/20 04:13:25;;;;;;;7.57;2.85;;;;;;;16.42;100.00;100490.31;4868506;29;20060;-76
2023/09/20 04:15:53;;;;;;;4.93;3.17;;;;;;;16.41;100.00;100494.78;4909405;29;20055;-76
2023/09/20 04:18:20;;;;;;;6.35;3.00;;;;;;;16.42;100.00;100490.31;4905951;29;20957;-76
2023/09/20 04:20:47;;;;;;;9.63;3.05;;;;;;;16.41;100.00;100483.25;4888780;29;20083;-76
2023/09/20 04:23:19;;;;;;;7.93;3.47;;;;;;;16.40;100.00;100492.16;4929593;29;20056;-76
2023/09/20 04:25:46;;;;;;;10.10;3.35;;;;;;;16.40;100.00;100487.69;4901498;29;20264;-75
2023/09/20 04:28:14;;;;;;;10.40;3.50;;;;;;;16.40;100.00;100486.81;4935667;29;20048;-75
2023/09/20 04:30:41;;;;;;;5.70;3.00;;;;;;;16.36;100.00;100494.88;4877737;29;20060;-75
2023/09/20 04:33:12;;;;;;;10.65;3.63;;;;;;;16.36;100.00;100476.25;4914977;29;20529;-76
2023/09/20 04:35:42;;;;;;;4.63;2.97;;;;;;;16.35;100.00;100486.94;4896468;29;20056;-76
2023/09/20 04:38:15;;;;;;;10.55;3.25;;;;;;;16.33;100.00;100487.00;4897046;29;20315;-76
2023/09/20 04:40:43;;;;;;;8.98;4.05;;;;;;;16.33;100.00;100484.34;4917877;29;20062;-76
2023/09/20 04:43:10;;;;;;;11.75;2.95;;;;;;;16.33;100.00;100489.66;4926091;29;20048;-76
2023/09/20 04:45:38;;;;;;;7.72;3.58;;;;;;;16.34;100.00;100485.19;4860575;29;20051;-77
2023/09/20 04:48:06;;;;;;;11.15;3.80;;;;;;;16.34;100.00;100480.75;4935217;29;20054;-77
2023/09/20 04:50:35;;;;;;;7.80;2.90;;;;;;;16.35;100.00;100487.81;4914941;29;20059;-76
2023/09/20 04:53:03;;;;;;;9.32;2.78;;;;;;;16.34;100.00;100486.06;4919847;29;20051;-77
2023/09/20 04:55:34;;;;;;;8.68;3.38;;;;;;;16.33;100.00;100489.66;4931473;28;20066;-76
2023/09/20 04:58:01;;;;;;;6.25;2.53;;;;;;;16.32;100.00;100490.56;4919987;29;20055;-76
2023/09/20 05:00:37;;;;;;;9.43;2.97;;;;;;;16.30;100.00;100487.06;4894451;28;20066;-75
2023/09/20 05:03:08;;;;;;;9.13;3.00;;;;;;;16.27;100.00;100495.09;4908929;29;20055;-77
2023/09/20 05:05:35;;;;;;;9.98;3.65;;;;;;;16.25;100.00;100496.06;4899359;29;20074;-76
2023/09/20 05:08:04;;;;;;;7.57;2.75;;;;;;;16.22;100.00;100497.03;4909980;29;20054;-76
2023/09/20 05:10:32;;;;;;;8.60;2.30;;;;;;;16.20;100.00;100500.63;4898132;29;20051;-77
2023/09/20 05:13:00;;;;;;;8.48;3.42;;;;;;;16.16;100.00;100490.09;4926196;29;20066;-78
2023/09/20 05:15:29;;;;;;;8.82;3.00;;;;;;;16.13;100.00;100494.59;4858672;28;20062;-78
2023/09/20 05:17:57;;;;;;;9.30;3.08;;;;;;;16.10;100.00;100500.00;4926966;29;20051;-77
2023/09/20 05:20:25;;;;;;;6.57;2.55;;;;;;;16.06;100.00;100499.19;4929160;29;20507;-77
2023/09/20 05:22:53;;;;;;;5.18;3.20;;;;;;;16.04;100.00;100495.69;4901352;29;20067;-77
2023/09/20 05:25:20;;;;;;;10.15;3.25;;;;;;;16.03;100.00;100498.38;4917780;29;20057;-77
2023/09/20 05:27:48;;;;;;;8.43;2.63;;;;;;;16.00;100.00;100490.50;4946531;28;20426;-77
2023/09/20 05:30:18;;;;;;;11.10;2.70;;;;;;;15.95;100.00;100502.13;4960248;28;20088;-77
2023/09/20 05:32:50;;;;;;;;;;;;;;;15.93;100.00;100493.31;4877136;29;20051;-77
2023/09/20 05:35:18;;;;;;;4.78;2.63;;;;;;;15.91;100.00;100497.78;4946868;29;19926;-78
2023/09/20 05:37:45;;;;;;;10.52;2.42;;;;;;;15.92;100.00;100502.19;4942519;28;20047;-78
2023/09/20 05:40:19;;;;;;;8.00;2.55;;;;;;;15.92;100.00;100494.22;4926602;29;20064;-77
2023/09/20 05:42:47;;;;;;;7.50;2.60;;;;;;;15.91;100.00;100489.81;4948383;28;20047;-77
2023/09/20 05:45:14;;;;;;;9.00;2.53;;;;;;;15.93;100.00;100487.13;4929403;29;20062;-77
2023/09/20 05:47:43;;;;;;;12.55;2.85;;;;;;;15.96;100.00;100498.56;4888347;29;20110;-77
2023/09/20 05:50:13;;;;;;;8.30;2.55;;;;;;;16.01;100.00;100489.59;4947712;29;20047;-77
2023/09/20 05:52:45;;;;;;;9.23;2.47;;;;;;;16.05;100.00;100501.88;4939867;28;20046;-77
2023/09/20 05:55:13;;;;;;;8.32;2.08;;;;;;;16.07;100.00;100495.63;4932928;29;20040;-76
2023/09/20 05:57:42;;;;;;;5.55;2.20;;;;;;;16.09;100.00;100498.25;4945798;28;20487;-76
2023/09/20 06:00:17;;;;;;;8.43;2.30;;;;;;;16.10;100.00;100492.88;4920208;29;20063;-76
2023/09/20 06:02:45;;;;;;;5.95;2.55;;;;;;;16.12;100.00;100495.50;4877164;29;20495;-76
2023/09/20 06:05:14;;;;;;;5.88;2.47;;;;;;;16.11;100.00;100491.13;4947927;29;20051;-76
2023/09/20 06:07:44;;;;;;;8.57;2.42;;;;;;;16.11;100.00;100491.97;4939506;28;20047;-76
2023/09/20 06:10:12;;;;;;;8.95;2.92;;;;;;;16.13;100.00;100491.94;4943690;29;20063;-76
2023/09/20 06:12:39;;;;;;;5.97;2.70;;;;;;;16.14;100.00;100493.69;4899171;29;20066;-76
2023/09/20 06:15:08;;;;;;;8.77;3.00;;;;;;;16.12;100.00;100491.09;4942775;28;20051;-75
2023/09/20 06:17:36;;;;;;;9.18;2.35;;;;;;;16.11;100.00;100489.31;4926424;29;20057;-76
2023/09/20 06:20:08;;;;;;;6.65;2.42;;;;;;;16.10;100.00;100486.69;4889316;29;20047;-75
2023/09/20 06:22:36;;;;;;;9.30;2.70;;;;;;;16.10;100.00;100495.53;4962656;28;20058;-76
2023/09/20 06:25:07;;;;;;;7.20;2.35;;;;;;;16.09;100.00;100488.50;4923044;29;20063;-76
2023/09/20 06:27:35;;;;;;;7.97;3.00;;;;;;;16.08;100.00;100492.06;4937872;28;20039;-76
2023/09/20 06:30:12;;;;;;;9.65;2.60;;;;;;;16.06;100.00;100491.22;4928309;29;20047;-78
2023/09/20 06:32:44;;;;;;;5.18;2.58;;;;;;;16.05;100.00;100499.22;4944451;29;20059;-77
2023/09/20 06:35:14;;;;;;;4.50;2.53;;;;;;;16.05;100.00;100502.78;4904137;28;20498;-76
2023/09/20 06:37:45;;;;;;;6.03;3.03;;;;;;;16.05;100.00;100497.47;4944796;28;20043;-76
2023/09/20 06:40:23;;;;;;;8.00;2.60;;;;;;;16.06;100.00;100493.00;4943746;28;20046;-76
2023/09/20 06:42:51;;;;;;;8.05;2.45;;;;;;;16.07;100.00;100495.63;4928271;29;20055;-76
2023/09/20 06:45:19;;;;;;;5.25;2.67;;;;;;;16.08;100.00;100496.50;4962139;28;20827;-76
2023/09/20 06:47:47;;;;;;;6.32;2.40;;;;;;;16.06;100.00;100496.53;4932524;29;20056;-76
2023/09/20 06:50:15;;;;;;;7.43;2.90;;;;;;;16.06;100.00;100500.97;4923103;28;20054;-76
2023/09/20 06:52:42;;;;;;;8.25;2.38;;;;;;;16.05;100.00;100510.75;4944683;29;20047;-76
2023/09/20 06:55:13;;;;;;;7.30;3.15;;;;;;;16.04;100.00;100510.78;4908166;29;20051;-76
2023/09/20 06:57:41;;;;;;;7.82;2.47;;;;;;;16.05;100.00;100517.81;4932017;29;20058;-76
2023/09/20 07:00:46;;;;;;;4.88;2.42;;;;;;;16.05;100.00;100515.16;4916913;29;20035;-76
2023/09/20 07:03:04;;;;;;;5.47;2.60;;;;;;;16.05;100.00;100515.16;4944725;29;20055;-75
2023/09/20 07:05:32;;;;;;;8.65;2.42;;;;;;;16.05;100.00;100508.09;4947936;29;20055;-76
2023/09/20 07:08:00;;;;;;;4.85;2.35;;;;;;;16.09;100.00;100514.22;4883764;29;20051;-76
2023/09/20 07:10:29;;;;;;;5.57;1.85;;;;;;;16.11;100.00;100513.25;4895655;29;20054;-76
2023/09/20 07:12:56;;;;;;;5.88;2.20;;;;;;;16.15;100.00;100519.38;4944276;28;20062;-76
2023/09/20 07:15:28;;;;;;;7.80;2.10;;;;;;;16.17;100.00;100514.88;4927258;28;20049;-76
2023/09/20 07:17:58;;;;;;;5.93;1.95;;;;;;;16.20;100.00;100522.78;4938915;29;20399;-76
2023/09/20 07:20:28;;;;;;;8.38;2.55;;;;;;;16.22;100.00;100520.97;4944233;29;20056;-76
2023/09/20 07:22:55;;;;;;;3.88;2.20;;;;;;;16.24;100.00;100508.50;4885496;28;20055;-76
2023/09/20 07:25:27;;;;;;;8.38;2.45;;;;;;;16.30;100.00;100512.78;4929033;29;20462;-76
2023/09/20 07:27:58;;;;;;;5.57;2.15;;;;;;;16.43;100.00;100492.06;4937599;28;20043;-76
2023/09/20 07:30:31;;;;;;;5.53;2.40;;;;;;;16.80;100.00;100483.06;4935432;29;20632;-76
2023/09/20 07:33:02;;;;;;;6.57;1.98;;;;;;;17.28;100.00;100493.25;4946356;28;20043;-76
2023/09/20 07:35:39;;;;;;;4.95;1.73;;;;;;;17.73;100.00;100490.03;4929843;29;20047;-76
2023/09/20 07:38:17;;;;;;;5.53;2.60;;;;;;;17.98;100.00;100491.97;4908497;28;20517;-76
2023/09/20 07:40:50;;;;;;;9.30;2.05;;;;;;;18.25;100.00;100491.00;4960740;28;20816;-76
2023/09/20 07:43:18;;;;;;;2.92;1.95;;;;;;;18.42;100.00;100492.25;4936035;28;20051;-77
2023/09/20 07:46:00;;;;;;;2.85;1.70;;;;;;;18.57;100.00;100490.81;4953875;28;20074;-76
2023/09/20 07:48:32;;;;;;;7.75;2.17;;;;;;;18.70;100.00;100495.66;4960581;28;20055;-76
2023/09/20 07:51:04;;;;;;;4.72;1.75;;;;;;;18.95;100.00;100496.59;4924908;29;20336;-78
2023/09/20 07:53:31;;;;;;;6.25;2.08;;;;;;;19.15;100.00;100504.75;4904450;28;20046;-76
2023/09/20 07:56:03;;;;;;;5.03;1.92;;;;;;;19.31;100.00;100499.66;4927933;29;20414;-76
2023/09/20 07:58:37;;;;;;;5.10;2.33;;;;;;;19.46;100.00;100506.22;4938187;28;20509;-77
2023/09/20 08:01:18;;;;;;;4.50;1.75;;;;;;;19.52;100.00;100503.31;4927490;29;20063;-76
2023/09/20 08:03:50;;;;;;;4.25;1.92;;;;;;;19.50;100.00;100498.97;4928358;29;20047;-76
2023/09/20 08:06:20;;;;;;;9.48;1.75;;;;;;;19.50;100.00;100496.28;4942776;29;20410;-76
2023/09/20 08:08:48;;;;;;;20.63;2.60;;;;;;;19.42;100.00;100504.59;4942575;29;20059;-75
2023/09/20 08:11:17;;;;;;;5.55;2.00;;;;;;;19.32;100.00;100493.41;4902853;28;20482;-76
2023/09/20 08:13:52;;;;;;;6.00;2.17;;;;;;;19.31;100.00;100497.00;4928676;29;20048;-75
2023/09/20 08:16:21;;;;;;;4.80;2.08;;;;;;;19.36;100.00;100503.03;4934568;28;20062;-76
2023/09/20 08:21:36;;;;;;;7.78;2.10;;;;;;;19.53;100.00;100506.84;4942117;28;20077;-76
2023/09/20 09:00:31;;;;;;;7.85;2.42;;;;;;;19.44;100.00;100551.69;4943490;28;20055;-77
2023/09/20 09:03:03;;;;;;;4.82;1.90;;;;;;;19.29;100.00;100557.63;4922045;28;20055;-76
2023/09/20 09:05:32;;;;;;;9.50;2.70;;;;;;;19.19;100.00;100545.56;4929101;29;20044;-77
2023/09/20 09:08:02;;;;;;;4.10;2.38;;;;;;;19.06;100.00;100556.69;4927648;29;20047;-76
2023/09/20 09:10:30;;;;;;;5.55;2.40;;;;;;;18.92;100.00;100558.09;4933689;28;20047;-76
2023/09/20 09:12:57;;;;;;;6.68;2.20;;;;;;;18.83;100.00;100552.19;4906136;28;20055;-76
2023/09/20 09:15:27;;;;;;;7.60;2.72;;;;;;;18.77;100.00;100559.50;4913502;29;20043;-76
2023/09/20 09:17:55;;;;;;;5.78;2.92;;;;;;;18.71;100.00;100547.22;4922730;28;20062;-77
2023/09/20 09:20:26;;;;;;;7.93;3.33;;;;;;;18.63;100.00;100542.16;4930461;29;20058;-76
2023/09/20 09:22:53;;;;;;;8.60;2.28;;;;;;;18.59;100.00;100547.69;4929917;28;20047;-76
2023/09/20 09:25:31;;;;;;;5.38;2.47;;;;;;;18.53;100.00;100546.09;4923027;29;20055;-76
2023/09/20 09:28:00;;;;;;;3.05;1.80;;;;;;;18.49;100.00;100544.47;4886647;29;20047;-76
2023/09/20 09:30:31;;;;;;;4.57;2.13;;;;;;;18.44;100.00;100541.06;4938168;28;20127;-76
2023/09/20 09:32:58;;;;;;;12.63;2.78;;;;;;;18.38;100.00;100543.97;4915886;28;20503;-76
2023/09/20 09:35:26;;;;;;;5.78;2.15;;;;;;;18.33;100.00;100537.91;4941869;28;20055;-76
2023/09/20 09:38:19;;;;;;;8.32;2.83;;;;;;;18.30;100.00;100544.22;4936779;28;20052;-76
2023/09/20 09:40:55;;;;;;;9.52;2.72;;;;;;;18.35;100.00;100552.06;4938544;28;20056;-77
2023/09/20 09:43:28;;;;;;;3.22;2.42;;;;;;;18.35;100.00;100544.91;4886025;28;21170;-76
2023/09/20 09:46:06;;;;;;;6.93;2.05;;;;;;;18.35;100.00;100541.38;4918284;28;20048;-77
2023/09/20 09:48:37;;;;;;;4.28;2.08;;;;;;;18.33;100.00;100533.44;4923959;28;20062;-77
2023/09/20 09:51:08;;;;;;;6.03;2.80;;;;;;;18.37;100.00;100534.19;4908473;29;20055;-77
2023/09/20 09:53:41;;;;;;;7.53;2.60;;;;;;;18.41;100.00;100535.84;4911699;29;20529;-77
2023/09/20 09:56:09;;;;;;;3.67;2.55;;;;;;;18.44;100.00;100519.72;4909864;29;20056;-77
2023/09/20 09:58:37;;;;;;;4.28;2.30;;;;;;;18.44;100.00;100517.06;4908713;29;20063;-77
2023/09/20 10:01:05;;;;;;;5.18;2.35;;;;;;;18.42;100.00;100521.59;4862386;29;20044;-78
2023/09/20 10:03:37;;;;;;;6.35;2.35;;;;;;;18.43;100.00;100507.31;4901018;29;20047;-77
2023/09/20 10:06:14;;;;;;;4.03;1.80;;;;;;;18.50;100.00;100519.50;4945237;28;20047;-78
2023/09/20 10:08:42;;;;;;;3.60;2.20;;;;;;;18.58;100.00;100506.78;4897350;29;20067;-78
2023/09/20 10:11:10;;;;;;;6.93;2.35;;;;;;;18.66;100.00;100509.19;4908398;29;20058;-77
2023/09/20 10:13:39;;;;;;;4.65;2.25;;;;;;;18.71;100.00;100512.53;4918815;29;20056;-77
2023/09/20 10:16:11;;;;;;;4.38;2.05;;;;;;;18.74;100.00;100506.25;4867124;29;20433;-77
2023/09/20 10:18:53;;;;;;;3.65;2.58;;;;;;;18.79;100.00;100521.16;4924252;29;20055;-77
2023/09/20 10:21:30;;;;;;;3.92;2.38;;;;;;;18.82;100.00;100515.72;4902222;29;20040;-77
2023/09/20 10:24:04;;;;;;;5.53;2.13;;;;;;;18.84;100.00;100519.22;4921692;29;20039;-77
2023/09/20 10:26:38;;;;;;;11.80;2.35;;;;;;;18.86;100.00;100528.03;4904604;29;20062;-78
2023/09/20 10:29:28;;;;;;;3.47;2.22;;;;;;;18.87;100.00;100513.75;4922170;29;20047;-77
2023/09/20 10:32:06;;;;;;;;;;;;;;;18.93;100.00;100515.34;4884750;29;20043;-77
2023/09/20 10:34:37;;;;;;;2.33;1.80;;;;;;;18.98;100.00;100523.16;4920876;29;19931;-77
2023/09/20 10:37:10;;;;;;;3.97;2.15;;;;;;;18.95;100.00;100536.66;4918189;29;20048;-77
2023/09/20 10:39:42;;;;;;;7.32;1.90;;;;;;;18.95;100.00;100528.63;4916026;29;20052;-77
2023/09/20 10:42:12;;;;;;;8.30;2.20;;;;;;;18.97;100.00;100527.66;4909185;29;20035;-77
2023/09/20 10:44:44;;;;;;;5.57;1.85;;;;;;;18.95;100.00;100520.63;4911140;29;20055;-77
2023/09/20 10:47:16;;;;;;;3.80;1.55;;;;;;;18.91;100.00;100519.00;4869139;29;20067;-78
2023/09/20 10:49:53;;;;;;;4.65;2.00;;;;;;;18.95;100.00;100521.50;4947348;29;20048;-78
2023/09/20 10:52:33;;;;;;;2.90;1.98;;;;;;;18.99;100.00;100517.78;4927643;28;20047;-78
2023/09/20 10:55:19;;;;;;;4.27;1.93;;;;;;;19.04;100.00;100517.63;4925132;28;20069;-78
2023/09/20 10:57:46;;;;;;;1.85;1.30;;;;;;;19.06;100.00;100518.44;4926474;28;20867;-77
2023/09/20 11:00:14;;;;;;;5.20;1.73;;;;;;;19.07;100.00;100510.38;4925471;28;20054;-78
2023/09/20 11:02:45;;;;;;;2.63;1.70;;;;;;;19.09;100.00;100515.63;4893762;28;20051;-77
2023/09/20 11:05:14;;;;;;;3.00;1.35;;;;;;;19.11;100.00;100526.25;4930822;29;20058;-79
2023/09/20 11:07:42;;;;;;;3.95;1.80;;;;;;;19.09;100.00;100508.50;4939091;28;20055;-78
2023/09/20 11:10:19;;;;;;;5.88;2.13;;;;;;;19.11;100.00;100511.13;4921673;29;20050;-77
2023/09/20 11:12:46;;;;;;;4.13;1.92;;;;;;;19.16;100.00;100510.94;4918317;29;20792;-77
2023/09/20 11:15:14;;;;;;;2.33;1.55;;;;;;;19.18;100.00;100511.75;4921710;29;20422;-78
2023/09/20 11:17:42;;;;;;;4.85;1.60;;;;;;;19.19;100.00;100510.84;4878560;29;20551;-77
2023/09/20 11:20:11;;;;;;;3.60;1.73;;;;;;;19.17;100.00;100513.56;4936776;29;20051;-77
2023/09/20 11:22:39;;;;;;;7.13;1.83;;;;;;;19.19;100.00;100511.69;4940435;28;20038;-78
2023/09/20 11:25:07;;;;;;;2.55;1.60;;;;;;;19.21;100.00;100515.19;4938323;28;20047;-78
2023/09/20 11:27:35;;;;;;;5.50;2.33;;;;;;;19.23;100.00;100517.81;4936574;28;20047;-78
2023/09/20 11:30:11;;;;;;;2.30;1.60;;;;;;;19.24;100.00;100508.84;4924635;29;20486;-78
2023/09/20 11:32:39;;;;;;;4.80;1.52;;;;;;;19.23;100.00;100515.13;4886818;29;20054;-77
2023/09/20 11:35:07;;;;;;;2.53;1.30;;;;;;;19.23;100.00;100515.13;4936810;28;20498;-78
2023/09/20 11:37:35;;;;;;;4.65;1.65;;;;;;;19.20;100.00;100513.44;4925349;28;20058;-78
2023/09/20 11:40:04;;;;;;;3.10;1.50;;;;;;;19.14;100.00;100507.47;4945746;29;20055;-78
2023/09/20 11:42:36;;;;;;;2.17;1.40;;;;;;;19.07;100.00;100510.38;4922779;28;20051;-78
2023/09/20 11:45:10;;;;;;;;;;;;;;;19.03;100.00;100518.53;4935199;29;20528;-78
2023/09/20 11:47:58;;;;;;;1.83;1.60;;;;;;;18.99;100.00;100500.91;4886911;28;21930;-77
2023/09/20 11:50:25;;;;;;;2.45;1.70;;;;;;;18.99;100.00;100504.44;4921732;28;20058;-77
2023/09/20 11:52:54;;;;;;;3.30;1.58;;;;;;;19.03;100.00;100499.84;4915012;29;20441;-77
2023/09/20 11:55:23;;;;;;;3.50;1.83;;;;;;;19.04;100.00;100493.59;4942476;28;20040;-78
2023/09/20 11:57:52;;;;;;;2.83;1.95;;;;;;;19.07;100.00;100504.13;4932898;28;20035;-77
2023/09/20 12:00:24;;;;;;;5.72;1.77;;;;;;;19.11;100.00;100502.22;4919038;29;20489;-77
2023/09/20 12:02:53;;;;;;;4.80;1.60;;;;;;;19.14;100.00;100502.13;4941807;28;20058;-77
2023/09/20 12:05:24;;;;;;;4.45;1.52;;;;;;;19.14;100.00;100489.63;4889807;28;20050;-77
2023/09/20 12:08:02;;;;;;;2.50;1.58;;;;;;;19.19;100.00;100498.34;4925284;29;20078;-77
2023/09/20 12:10:30;;;;;;;5.03;2.33;;;;;;;19.23;100.00;100499.09;4928887;29;20047;-77